createdAt,value
2018-12-26T00:00:45.452Z,26.57
2018-12-26T00:06:20.507Z,21.33
2018-12-26T00:11:36.442Z,24.50
2018-12-26T00:16:52.372Z,25.87
2018-12-26T00:19:40.239Z,24.67
2018-12-26T00:22:29.558Z,24.80
2018-12-26T00:24:58.047Z,29.70
2018-12-26T00:27:26.589Z,24.50
2018-12-26T00:29:55.123Z,30.30
2018-12-26T00:32:23.615Z,25.50
2018-12-26T00:34:52.443Z,23.17
2018-12-26T00:37:20.938Z,24.00
2018-12-26T00:40:08.769Z,29.67
2018-12-26T00:42:37.233Z,28.50
2018-12-26T00:45:45.652Z,29.00
2018-12-26T00:48:14.133Z,27.93
2018-12-26T00:51:01.962Z,25.70
2018-12-26T00:53:30.442Z,24.37
2018-12-26T00:55:58.935Z,28.17
2018-12-26T00:58:46.530Z,27.30
2018-12-26T01:01:15.031Z,21.50
2018-12-26T01:03:43.509Z,27.23
2018-12-26T01:06:31.116Z,24.67
2018-12-26T01:08:59.591Z,27.37
2018-12-26T01:11:28.078Z,26.80
2018-12-26T01:14:15.679Z,23.17
2018-12-26T01:16:44.165Z,24.57
2018-12-26T01:19:31.767Z,23.07
2018-12-26T01:22:19.495Z,21.73
2018-12-26T01:25:07.325Z,26.60
2018-12-26T01:27:35.811Z,27.50
2018-12-26T01:30:44.545Z,27.07
2018-12-26T01:33:13.023Z,32.30
2018-12-26T01:35:41.510Z,27.50
2018-12-26T01:38:09.990Z,28.47
2018-12-26T01:40:57.595Z,35.03
2018-12-26T01:43:45.191Z,37.63
2018-12-26T01:48:47.651Z,30.63
2018-12-26T01:51:35.263Z,38.20
2018-12-26T01:54:03.751Z,37.40
2018-12-26T01:59:25.785Z,33.20
2018-12-26T02:01:54.289Z,31.80
2018-12-26T02:04:41.885Z,31.87
2018-12-26T02:07:10.378Z,33.67
2018-12-26T02:09:38.854Z,35.27
2018-12-26T02:12:26.595Z,43.77
2018-12-26T02:14:55.073Z,37.17
2018-12-26T02:17:23.559Z,35.63
2018-12-26T02:23:00.114Z,32.50
2018-12-26T02:25:47.720Z,33.53
2018-12-26T02:28:16.201Z,32.20
2018-12-26T02:30:44.701Z,39.53
2018-12-26T02:33:13.185Z,32.87
2018-12-26T02:35:41.668Z,42.87
2018-12-26T02:38:10.153Z,34.03
2018-12-26T02:40:57.910Z,42.93
2018-12-26T02:43:26.627Z,33.23
2018-12-26T02:45:55.107Z,48.70
2018-12-26T02:51:16.500Z,33.07
2018-12-26T02:53:44.981Z,42.57
2018-12-26T02:56:13.760Z,28.73
2018-12-26T02:58:42.234Z,35.33
2018-12-26T03:06:52.762Z,34.97
2018-12-26T03:09:21.239Z,38.83
2018-12-26T03:11:49.735Z,32.00
2018-12-26T03:14:18.215Z,33.37
2018-12-26T03:19:41.206Z,35.10
2018-12-26T03:24:43.401Z,31.97
2018-12-26T03:27:31.247Z,28.67
2018-12-26T03:29:59.726Z,32.33
2018-12-26T03:32:28.217Z,33.03
2018-12-26T03:35:15.943Z,30.00
2018-12-26T03:38:03.553Z,29.60
2018-12-26T03:40:32.031Z,37.80
2018-12-26T03:43:19.767Z,32.00
2018-12-26T03:46:28.156Z,31.13
2018-12-26T03:51:50.398Z,38.77
2018-12-26T03:54:18.889Z,35.03
2018-12-26T03:57:06.796Z,36.30
2018-12-26T03:59:35.219Z,35.17
2018-12-26T04:02:23.071Z,31.37
2018-12-26T04:08:18.918Z,52.80
2018-12-26T04:11:27.299Z,39.33
2018-12-26T04:14:15.133Z,47.73
2018-12-26T04:17:23.700Z,37.93
2018-12-26T04:20:32.096Z,47.10
2018-12-26T04:23:40.494Z,50.47
2018-12-26T04:26:28.091Z,44.97
2018-12-26T04:36:39.102Z,49.47
2018-12-26T04:39:07.590Z,57.03
2018-12-26T04:46:57.516Z,49.50
2018-12-26T04:49:26.008Z,51.27
2018-12-26T04:52:13.606Z,47.00
2018-12-26T04:55:01.210Z,43.70
2018-12-26T04:57:49.045Z,47.17
2018-12-26T05:00:17.530Z,50.40
2018-12-26T05:02:46.019Z,51.93
2018-12-26T05:05:33.616Z,40.77
2018-12-26T05:08:21.223Z,48.23
2018-12-26T05:13:56.485Z,45.20
2018-12-26T05:16:24.966Z,47.53
2018-12-26T05:24:20.952Z,51.30
2018-12-26T05:27:08.776Z,57.83
2018-12-26T05:29:56.412Z,54.00
2018-12-26T05:32:24.869Z,45.17
2018-12-26T05:34:53.360Z,46.70
2018-12-26T05:40:09.284Z,53.60
2018-12-26T05:42:57.111Z,56.43
2018-12-26T05:48:13.060Z,54.77
2018-12-26T05:50:41.553Z,57.10
2018-12-26T05:53:10.056Z,63.83
2018-12-26T05:55:57.656Z,63.60
2018-12-26T05:58:26.177Z,62.97
2018-12-26T06:00:54.663Z,71.70
2018-12-26T06:03:42.400Z,73.03
2018-12-26T06:06:10.894Z,69.50
2018-12-26T06:08:58.634Z,75.60
2018-12-26T06:11:27.123Z,69.87
2018-12-26T06:13:55.615Z,81.57
2018-12-26T06:16:24.097Z,71.03
2018-12-26T06:18:52.599Z,66.33
2018-12-26T06:21:40.347Z,65.90
2018-12-26T06:24:28.195Z,49.87
2018-12-26T06:26:56.688Z,67.30
2018-12-26T06:29:25.213Z,82.17
2018-12-26T06:31:53.696Z,82.10
2018-12-26T06:34:22.223Z,72.03
2018-12-26T06:39:38.306Z,83.20
2018-12-26T06:42:06.775Z,62.93
2018-12-26T06:44:35.285Z,70.77
2018-12-26T06:47:03.772Z,77.93
2018-12-26T06:49:32.279Z,71.83
2018-12-26T06:52:20.102Z,73.93
2018-12-26T06:54:48.862Z,69.83
2018-12-26T07:00:44.847Z,79.37
2018-12-26T07:03:32.572Z,69.47
2018-12-26T07:06:20.330Z,73.10
2018-12-26T07:11:36.286Z,71.80
2018-12-26T07:16:59.167Z,69.73
2018-12-26T07:19:47.010Z,56.27
2018-12-26T07:22:15.487Z,67.40
2018-12-26T07:24:44.006Z,62.90
2018-12-26T07:27:12.493Z,80.00
2018-12-26T07:30:00.223Z,76.87
2018-12-26T07:32:28.734Z,67.83
2018-12-26T07:34:57.242Z,67.77
2018-12-26T07:37:44.958Z,79.10
2018-12-26T07:40:13.450Z,77.77
2018-12-26T07:43:01.044Z,84.73
2018-12-26T07:45:41.807Z,66.53
2018-12-26T07:48:29.538Z,61.90
2018-12-26T07:50:58.057Z,72.23
2018-12-26T07:53:26.536Z,74.00
2018-12-26T07:55:55.047Z,59.10
2018-12-26T07:58:23.524Z,64.20
2018-12-26T08:03:26.431Z,63.07
2018-12-26T08:06:14.176Z,69.60
2018-12-26T08:08:42.707Z,69.97
2018-12-26T08:11:11.209Z,73.30
2018-12-26T08:13:39.688Z,80.30
2018-12-26T08:16:08.181Z,92.67
2018-12-26T08:18:55.787Z,89.43
2018-12-26T08:21:43.392Z,83.17
2018-12-26T08:26:59.332Z,90.97
2018-12-26T08:29:46.942Z,95.20
2018-12-26T08:34:49.467Z,113.37
2018-12-26T08:37:17.971Z,90.50
2018-12-26T08:39:46.462Z,87.73
2018-12-26T08:42:34.228Z,113.07
2018-12-26T08:50:24.045Z,96.93
2018-12-26T08:52:52.478Z,107.80
2018-12-26T08:55:20.960Z,95.93
2018-12-26T08:58:08.714Z,100.47
2018-12-26T09:00:37.186Z,96.10
2018-12-26T09:03:05.696Z,100.83
2018-12-26T09:05:34.172Z,91.60
2018-12-26T09:08:02.739Z,87.10
2018-12-26T09:13:18.689Z,93.87
2018-12-26T09:18:34.639Z,99.27
2018-12-26T09:21:03.168Z,102.57
2018-12-26T09:23:31.693Z,108.73
2018-12-26T09:26:40.103Z,110.03
2018-12-26T09:29:08.625Z,113.17
2018-12-26T09:31:37.150Z,117.30
2018-12-26T09:34:05.641Z,112.70
2018-12-26T09:36:53.505Z,162.70
2018-12-26T09:39:21.994Z,128.53
2018-12-26T09:41:50.541Z,149.47
2018-12-26T09:44:38.302Z,151.43
2018-12-26T09:47:26.091Z,162.67
2018-12-26T09:49:55.038Z,154.63
2018-12-26T09:52:23.649Z,152.13
2018-12-26T09:54:52.217Z,170.10
2018-12-26T09:57:20.756Z,168.43
2018-12-26T09:59:49.263Z,194.70
2018-12-26T10:02:36.931Z,183.18
2018-12-26T10:05:45.474Z,188.50
2018-12-26T10:08:33.209Z,209.33
2018-12-26T10:16:42.275Z,242.13
2018-12-26T10:19:30.012Z,233.83
2018-12-26T10:21:58.504Z,259.67
2018-12-26T10:24:26.986Z,245.97
2018-12-26T10:27:14.823Z,241.57
2018-12-26T10:29:43.304Z,257.90
2018-12-26T10:32:30.914Z,219.27
2018-12-26T10:34:59.395Z,225.57
2018-12-26T10:37:27.888Z,284.43
2018-12-26T10:39:56.373Z,228.63
2018-12-26T10:42:45.986Z,243.33
2018-12-26T10:45:14.319Z,189.57
2018-12-26T10:48:02.085Z,256.37
2018-12-26T10:50:30.555Z,275.37
2018-12-26T10:53:18.296Z,174.70
2018-12-26T10:55:46.786Z,245.40
2018-12-26T10:58:15.280Z,255.93
2018-12-26T11:00:43.772Z,250.50
2018-12-26T11:03:31.518Z,261.57
2018-12-26T11:06:00.001Z,213.13
2018-12-26T11:08:47.740Z,247.20
2018-12-26T11:11:16.225Z,217.33
2018-12-26T11:14:03.969Z,252.43
2018-12-26T11:16:32.457Z,259.17
2018-12-26T11:19:20.310Z,179.50
2018-12-26T11:21:48.803Z,250.53
2018-12-26T11:24:36.544Z,274.57
2018-12-26T11:29:52.498Z,236.50
2018-12-26T11:32:40.343Z,287.77
2018-12-26T11:35:48.750Z,289.33
2018-12-26T11:38:36.565Z,178.60
2018-12-26T11:41:05.271Z,308.30
2018-12-26T11:43:54.316Z,355.43
2018-12-26T11:46:22.799Z,335.97
2018-12-26T11:49:10.632Z,342.97
2018-12-26T11:54:45.683Z,302.37
2018-12-26T12:00:40.073Z,335.20
2018-12-26T12:03:27.826Z,377.50
2018-12-26T12:06:15.568Z,332.97
2018-12-26T12:09:03.189Z,379.43
2018-12-26T12:11:31.669Z,312.10
2018-12-26T12:14:19.275Z,376.37
2018-12-26T12:16:47.760Z,346.93
2018-12-26T12:19:16.262Z,371.23
2018-12-26T12:22:03.991Z,407.63
2018-12-26T12:27:06.144Z,382.77
2018-12-26T12:29:53.885Z,315.47
2018-12-26T12:32:22.375Z,294.67
2018-12-26T12:34:50.864Z,342.10
2018-12-26T12:37:19.347Z,359.10
2018-12-26T12:39:47.840Z,298.77
2018-12-26T12:42:16.326Z,314.40
2018-12-26T12:44:44.816Z,320.63
2018-12-26T12:47:32.641Z,332.33
2018-12-26T12:50:01.131Z,351.60
2018-12-26T12:55:17.071Z,355.60
2018-12-26T12:58:04.802Z,323.53
2018-12-26T13:06:21.097Z,235.00
2018-12-26T13:08:49.583Z,214.57
2018-12-26T13:11:37.197Z,237.70
2018-12-26T13:14:24.927Z,230.90
2018-12-26T13:16:53.424Z,224.70
2018-12-26T13:19:41.025Z,244.97
2018-12-26T13:24:43.502Z,245.10
2018-12-26T13:27:11.998Z,243.70
2018-12-26T13:29:59.821Z,238.93
2018-12-26T13:32:28.318Z,252.17
2018-12-26T13:35:16.047Z,291.20
2018-12-26T13:38:03.795Z,243.70
2018-12-26T13:40:32.281Z,244.37
2018-12-26T13:43:00.770Z,266.83
2018-12-26T13:45:29.255Z,327.53
2018-12-26T13:50:51.291Z,302.27
2018-12-26T13:53:39.019Z,359.70
2018-12-26T13:56:07.515Z,298.07
2018-12-26T14:01:30.286Z,334.67
2018-12-26T14:04:17.884Z,345.80
2018-12-26T14:06:46.376Z,339.17
2018-12-26T14:09:14.860Z,299.83
2018-12-26T14:12:02.472Z,407.93
2018-12-26T14:17:18.408Z,327.97
2018-12-26T14:22:34.342Z,376.50
2018-12-26T14:27:50.280Z,336.60
2018-12-26T14:30:37.884Z,363.60
2018-12-26T14:33:06.493Z,380.20
2018-12-26T14:35:36.582Z,405.30
2018-12-26T14:38:24.191Z,379.87
2018-12-26T14:40:52.676Z,435.77
2018-12-26T14:43:21.171Z,476.97
2018-12-26T14:46:08.903Z,478.73
2018-12-26T14:48:37.397Z,447.03
2018-12-26T14:51:26.499Z,428.00
2018-12-26T14:53:55.575Z,440.83
2018-12-26T14:56:43.177Z,534.17
2018-12-26T14:59:11.666Z,432.60
2018-12-26T15:02:20.063Z,455.43
2018-12-26T15:04:48.555Z,502.50
2018-12-26T15:07:17.258Z,422.80
2018-12-26T15:09:47.260Z,488.43
2018-12-26T15:12:34.862Z,421.70
2018-12-26T15:15:03.357Z,363.00
2018-12-26T15:17:51.193Z,391.17
2018-12-26T15:20:38.928Z,401.13
2018-12-26T15:23:07.425Z,416.10
2018-12-26T15:25:35.911Z,375.70
2018-12-26T15:28:23.526Z,389.70
2018-12-26T15:36:32.739Z,411.87
2018-12-26T15:39:01.229Z,424.27
2018-12-26T15:41:48.965Z,433.70
2018-12-26T15:44:17.464Z,486.00
2018-12-26T15:46:45.942Z,396.80
2018-12-26T15:49:14.435Z,396.87
2018-12-26T15:51:42.922Z,351.40
2018-12-26T15:54:11.420Z,448.17
2018-12-26T15:56:59.241Z,329.97
2018-12-26T15:59:46.975Z,400.17
2018-12-26T16:02:15.460Z,440.17
2018-12-26T16:04:43.956Z,362.87
2018-12-26T16:07:31.684Z,400.40
2018-12-26T16:10:00.180Z,412.03
2018-12-26T16:12:28.663Z,233.87
2018-12-26T16:14:57.163Z,444.77
2018-12-26T16:17:25.649Z,459.63
2018-12-26T16:20:13.391Z,374.43
2018-12-26T16:22:42.181Z,372.13
2018-12-26T16:25:10.675Z,402.90
2018-12-26T16:27:58.408Z,400.17
2018-12-26T16:30:46.543Z,432.52
2018-12-26T16:33:35.612Z,412.80
2018-12-26T16:38:58.395Z,448.90
2018-12-26T16:46:35.108Z,386.13
2018-12-26T16:51:51.040Z,364.00
2018-12-26T16:54:19.605Z,416.70
2018-12-26T16:56:48.094Z,395.23
2018-12-26T16:59:16.576Z,406.43
2018-12-26T17:02:04.322Z,366.07
2018-12-26T17:04:51.933Z,330.20
2018-12-26T17:07:39.669Z,352.97
2018-12-26T17:10:48.075Z,350.33
2018-12-26T17:13:35.897Z,356.33
2018-12-26T17:16:23.637Z,321.47
2018-12-26T17:19:11.464Z,326.67
2018-12-26T17:21:39.955Z,295.63
2018-12-26T17:27:01.579Z,310.73
2018-12-26T17:29:49.319Z,328.67
2018-12-26T17:32:17.807Z,320.37
2018-12-26T17:35:05.569Z,316.50
2018-12-26T17:37:34.033Z,314.27
2018-12-26T17:40:21.874Z,301.33
2018-12-26T17:43:09.620Z,247.23
2018-12-26T17:45:38.112Z,235.67
2018-12-26T17:48:06.595Z,220.90
2018-12-26T17:50:54.435Z,205.93
2018-12-26T17:54:02.831Z,225.10
2018-12-26T17:57:11.232Z,210.53
2018-12-26T18:00:19.647Z,173.80
2018-12-26T18:02:48.127Z,160.77
2018-12-26T18:08:04.068Z,156.17
2018-12-26T18:10:32.555Z,174.63
2018-12-26T18:13:20.156Z,158.67
2018-12-26T18:16:07.900Z,202.43
2018-12-26T18:18:55.495Z,163.57
2018-12-26T18:21:23.998Z,173.90
2018-12-26T18:24:11.732Z,183.33
2018-12-26T18:26:40.223Z,198.80
2018-12-26T18:29:08.702Z,187.93
2018-12-26T18:31:37.207Z,205.77
2018-12-26T18:34:25.031Z,213.30
2018-12-26T18:36:53.525Z,197.13
2018-12-26T18:39:41.256Z,176.20
2018-12-26T18:42:29.087Z,229.63
2018-12-26T18:45:16.711Z,191.63
2018-12-26T18:48:04.320Z,252.13
2018-12-26T18:50:32.835Z,208.13
2018-12-26T18:53:20.418Z,220.03
2018-12-26T18:55:48.909Z,261.13
2018-12-26T18:58:17.410Z,225.27
2018-12-26T19:01:05.015Z,218.10
2018-12-26T19:03:33.507Z,265.33
2018-12-26T19:06:21.116Z,248.70
2018-12-26T19:08:49.599Z,224.50
2018-12-26T19:11:18.079Z,203.43
2018-12-26T19:14:05.688Z,255.47
2018-12-26T19:16:53.530Z,248.33
2018-12-26T19:19:41.266Z,237.80
2018-12-26T19:22:29.009Z,213.03
2018-12-26T19:24:57.493Z,226.53
2018-12-26T19:27:25.988Z,223.83
2018-12-26T19:29:59.302Z,235.13
2018-12-26T19:32:43.943Z,254.13
2018-12-26T19:35:52.349Z,250.37
2018-12-26T19:38:20.859Z,286.50
2018-12-26T19:40:49.368Z,249.03
2018-12-26T19:43:37.223Z,263.40
2018-12-26T19:46:05.710Z,358.93
2018-12-26T19:48:53.359Z,340.20
2018-12-26T19:51:41.187Z,295.37
2018-12-26T19:54:09.741Z,288.63
2018-12-26T19:56:38.295Z,324.17
2018-12-26T19:59:06.890Z,287.03
2018-12-26T20:01:54.759Z,308.30
2018-12-26T20:04:42.716Z,333.53
2018-12-26T20:07:11.243Z,315.13
2018-12-26T20:09:59.101Z,317.70
2018-12-26T20:12:47.024Z,260.93
2018-12-26T20:15:34.690Z,269.73
2018-12-26T20:18:22.396Z,310.70
2018-12-26T20:20:51.003Z,320.50
2018-12-26T20:23:38.947Z,264.60
2018-12-26T20:26:07.435Z,256.87
2018-12-26T20:28:55.202Z,226.23
2018-12-26T20:31:23.709Z,312.33
2018-12-26T20:33:52.255Z,332.90
2018-12-26T20:36:40.091Z,271.63
2018-12-26T20:41:42.424Z,241.60
2018-12-26T20:44:30.243Z,270.03
2018-12-26T20:46:58.776Z,279.40
2018-12-26T20:49:46.565Z,290.10
2018-12-26T20:52:15.050Z,212.87
2018-12-26T20:54:43.546Z,233.73
2018-12-26T20:57:12.052Z,181.73
2018-12-26T21:04:48.536Z,154.27
2018-12-26T21:07:36.353Z,171.37
2018-12-26T21:10:44.900Z,168.87
2018-12-26T21:13:32.673Z,157.67
2018-12-26T21:16:01.179Z,181.30
2018-12-26T21:18:29.680Z,142.03
2018-12-26T21:21:17.561Z,173.40
2018-12-26T21:24:05.309Z,143.43
2018-12-26T21:26:53.086Z,154.03
2018-12-26T21:29:21.685Z,139.87
2018-12-26T21:31:50.229Z,164.23
2018-12-26T21:34:38.055Z,158.13
2018-12-26T21:37:25.870Z,185.40
2018-12-26T21:39:54.480Z,147.53
2018-12-26T21:42:42.116Z,205.57
2018-12-26T21:45:10.707Z,152.03
2018-12-26T21:47:58.484Z,176.23
2018-12-26T21:50:27.013Z,179.47
2018-12-26T21:53:14.785Z,142.57
2018-12-26T21:56:02.536Z,134.50
2018-12-26T21:58:31.038Z,161.53
2018-12-26T22:00:59.559Z,160.90
2018-12-26T22:03:47.416Z,164.00
2018-12-26T22:09:08.738Z,190.07
2018-12-26T22:11:37.272Z,166.33
2018-12-26T22:14:05.775Z,169.67
2018-12-26T22:16:34.269Z,165.53
2018-12-26T22:19:02.788Z,152.17
2018-12-26T22:21:50.526Z,205.97
2018-12-26T22:27:06.504Z,189.23
2018-12-26T22:29:54.315Z,177.53
2018-12-26T22:32:30.423Z,176.33
2018-12-26T22:34:53.130Z,166.70
2018-12-26T22:37:21.662Z,157.30
2018-12-26T22:39:50.196Z,188.83
2018-12-26T22:42:18.736Z,165.23
2018-12-26T22:44:47.220Z,173.07
2018-12-26T22:47:15.718Z,155.43
2018-12-26T22:49:44.319Z,148.90
2018-12-26T22:52:12.879Z,147.83
2018-12-26T22:54:41.474Z,147.43
2018-12-26T22:57:10.012Z,147.37
2018-12-26T22:59:38.496Z,157.30
2018-12-26T23:04:46.234Z,145.27
2018-12-26T23:07:14.811Z,173.73
2018-12-26T23:10:02.537Z,141.80
2018-12-26T23:15:44.928Z,130.53
2018-12-26T23:18:32.753Z,106.87
2018-12-26T23:21:01.237Z,126.57
2018-12-26T23:23:49.072Z,151.53
2018-12-26T23:26:36.670Z,150.67
2018-12-26T23:29:05.245Z,146.10
2018-12-26T23:37:34.355Z,182.73
2018-12-26T23:43:10.918Z,155.90
2018-12-26T23:45:39.399Z,192.50
2018-12-26T23:48:27.007Z,171.53
2018-12-26T23:54:02.055Z,125.70
2018-12-26T23:56:30.532Z,93.23
2018-12-26T23:58:59.028Z,110.23
